Time,TemperatureF,DewpointF,PressureIn,WindDirection,WindDirectionDegrees,WindSpeedMPH,WindSpeedGustMPH,Humidity,HourlyPrecipIn,Conditions,Clouds,dailyrainin,SoftwareType,DateUTC
2013-03-30 00:10:00,56.8,49.7,30.13,East,90,0.0,-999.0,77,-99.99,,,0.00,Acu-Link.com,2013-03-30 04:10:00,
2013-03-30 00:25:00,56.5,49.7,30.12,East,90,0.0,-999.0,78,-99.99,,,0.00,Acu-Link.com,2013-03-30 04:25:00,
2013-03-30 00:41:00,56.3,49.9,30.12,East,90,0.0,-999.0,79,-99.99,,,0.00,Acu-Link.com,2013-03-30 04:41:00,
2013-03-30 00:56:00,55.9,49.8,30.12,East,90,0.0,-999.0,80,-99.99,,,0.00,Acu-Link.com,2013-03-30 04:56:00,
2013-03-30 01:56:00,54.5,49.1,30.11,East,90,0.0,-999.0,82,-99.99,,,0.00,Acu-Link.com,2013-03-30 05:56:00,
2013-03-30 02:11:00,54.3,48.9,30.11,East,90,0.0,-999.0,82,-99.99,,,0.00,Acu-Link.com,2013-03-30 06:11:00,
2013-03-30 02:41:00,53.8,48.8,30.10,East,90,0.0,-999.0,83,-99.99,,,0.00,Acu-Link.com,2013-03-30 06:41:00,
2013-03-30 02:57:00,53.6,48.6,30.10,East,90,0.0,-999.0,83,-99.99,,,0.00,Acu-Link.com,2013-03-30 06:57:00,
2013-03-30 03:12:00,53.2,48.5,30.10,East,90,0.0,-999.0,84,-99.99,,,0.00,Acu-Link.com,2013-03-30 07:12:00,
2013-03-30 03:27:00,53.1,48.7,30.10,East,90,0.0,-999.0,85,-99.99,,,0.00,Acu-Link.com,2013-03-30 07:27:00,
2013-03-30 03:42:00,52.9,48.5,30.10,East,90,0.0,-999.0,85,-99.99,,,0.00,Acu-Link.com,2013-03-30 07:42:00,
2013-03-30 03:57:00,53.1,48.7,30.10,East,90,0.0,-999.0,85,-99.99,,,0.00,Acu-Link.com,2013-03-30 07:57:00,
2013-03-30 04:12:00,53.1,49.3,30.10,East,90,0.0,-999.0,87,-99.99,,,0.00,Acu-Link.com,2013-03-30 08:12:00,
2013-03-30 04:27:00,53.1,49.3,30.10,East,90,0.0,-999.0,87,-99.99,,,0.00,Acu-Link.com,2013-03-30 08:27:00,
2013-03-30 04:58:00,52.7,49.2,30.10,East,90,0.0,-999.0,88,-99.99,,,0.00,Acu-Link.com,2013-03-30 08:58:00,
2013-03-30 05:13:00,52.7,49.2,30.09,East,90,0.0,-999.0,88,-99.99,,,0.00,Acu-Link.com,2013-03-30 09:13:00,
2013-03-30 05:28:00,52.9,49.4,30.09,East,90,0.0,-999.0,88,-99.99,,,0.00,Acu-Link.com,2013-03-30 09:28:00,
2013-03-30 05:43:00,53.1,50.2,30.10,East,90,0.0,-999.0,90,-99.99,,,0.00,Acu-Link.com,2013-03-30 09:43:00,
2013-03-30 05:58:00,53.2,50.9,30.10,East,90,0.0,-999.0,92,-99.99,,,0.00,Acu-Link.com,2013-03-30 09:58:00,
2013-03-30 06:13:00,52.9,50.6,30.10,East,90,0.0,-999.0,92,-99.99,,,0.00,Acu-Link.com,2013-03-30 10:13:00,
2013-03-30 06:28:00,52.7,50.4,30.11,East,90,0.0,-999.0,92,-99.99,,,0.00,Acu-Link.com,2013-03-30 10:28:00,
2013-03-30 06:43:00,52.5,50.2,30.11,East,90,0.0,-999.0,92,-99.99,,,0.00,Acu-Link.com,2013-03-30 10:43:00,
2013-03-30 06:59:00,53.1,51.4,30.11,East,90,0.0,-999.0,94,-99.99,,,0.00,Acu-Link.com,2013-03-30 10:59:00,
2013-03-30 07:14:00,53.1,51.4,30.12,East,90,0.0,-999.0,94,-99.99,,,0.00,Acu-Link.com,2013-03-30 11:14:00,
2013-03-30 07:29:00,53.1,51.4,30.11,East,90,0.0,-999.0,94,-99.99,,,0.00,Acu-Link.com,2013-03-30 11:29:00,
2013-03-30 07:44:00,53.1,51.4,30.12,East,90,0.0,-999.0,94,-99.99,,,0.00,Acu-Link.com,2013-03-30 11:44:00,
2013-03-30 07:59:00,53.8,52.1,30.14,East,90,0.0,-999.0,94,-99.99,,,0.00,Acu-Link.com,2013-03-30 11:59:00,
2013-03-30 08:14:00,55.0,53.3,30.15,East,90,0.0,-999.0,94,-99.99,,,0.00,Acu-Link.com,2013-03-30 12:14:00,
2013-03-30 08:29:00,59.0,57.9,30.14,East,90,0.0,-999.0,96,-99.99,,,0.00,Acu-Link.com,2013-03-30 12:29:00,
2013-03-30 08:44:00,62.2,60.4,30.14,East,90,0.0,-999.0,94,-99.99,,,0.00,Acu-Link.com,2013-03-30 12:44:00,
2013-03-30 08:59:00,63.1,59.2,30.14,East,90,0.0,-999.0,87,-99.99,,,0.00,Acu-Link.com,2013-03-30 12:59:00,
2013-03-30 09:15:00,66.0,56.7,30.14,East,90,0.0,-999.0,72,-99.99,,,0.00,Acu-Link.com,2013-03-30 13:15:00,
2013-03-30 09:30:00,68.9,54.0,30.14,SSE,157,0.0,-999.0,59,-99.99,,,0.00,Acu-Link.com,2013-03-30 13:30:00,
2013-03-30 09:45:00,70.2,50.1,30.13,East,90,2.7,-999.0,49,-99.99,,,0.00,Acu-Link.com,2013-03-30 13:45:00,
2013-03-30 10:00:00,70.0,50.0,30.13,ESE,112,4.2,-999.0,49,-99.99,,,0.00,Acu-Link.com,2013-03-30 14:00:00,
2013-03-30 10:15:00,70.5,50.4,30.12,SE,135,2.2,-999.0,49,-99.99,,,0.00,Acu-Link.com,2013-03-30 14:15:00,
2013-03-30 10:30:00,71.2,49.9,30.12,ESE,112,3.2,-999.0,47,-99.99,,,0.00,Acu-Link.com,2013-03-30 14:30:00,
2013-03-30 10:45:00,71.4,50.1,30.12,SE,135,2.7,-999.0,47,-99.99,,,0.00,Acu-Link.com,2013-03-30 14:45:00,
2013-03-30 11:00:00,71.4,48.9,30.11,SSE,157,4.2,-999.0,45,-99.99,,,0.00,Acu-Link.com,2013-03-30 15:00:00,
2013-03-30 11:15:00,71.4,49.5,30.12,South,180,6.3,-999.0,46,-99.99,,,0.00,Acu-Link.com,2013-03-30 15:15:00,
2013-03-30 11:31:00,71.8,48.7,30.12,NE,45,2.7,-999.0,44,-99.99,,,0.00,Acu-Link.com,2013-03-30 15:31:00,
2013-03-30 11:46:00,71.8,49.3,30.11,ESE,112,3.7,-999.0,45,-99.99,,,0.00,Acu-Link.com,2013-03-30 15:46:00,
2013-03-30 13:01:00,72.5,48.7,30.05,SE,135,5.3,-999.0,43,-99.99,,,0.00,Acu-Link.com,2013-03-30 17:01:00,
2013-03-30 13:16:00,73.0,47.9,30.04,SSE,157,3.2,-999.0,41,-99.99,,,0.00,Acu-Link.com,2013-03-30 17:16:00,
2013-03-30 13:31:00,73.0,47.2,30.07,SE,135,4.7,-999.0,40,-99.99,,,0.00,Acu-Link.com,2013-03-30 17:31:00,
2013-03-30 13:47:00,73.4,46.9,30.07,SSE,157,7.3,-999.0,39,-99.99,,,0.00,Acu-Link.com,2013-03-30 17:47:00,
2013-03-30 14:17:00,72.5,45.4,30.06,SE,135,3.2,-999.0,38,-99.99,,,0.00,Acu-Link.com,2013-03-30 18:17:00,
2013-03-30 14:32:00,74.5,49.2,30.06,SSE,157,2.7,-999.0,41,-99.99,,,0.00,Acu-Link.com,2013-03-30 18:32:00,
2013-03-30 14:47:00,73.9,48.0,30.02,South,180,4.2,-999.0,40,-99.99,,,0.00,Acu-Link.com,2013-03-30 18:47:00,
2013-03-30 15:02:00,73.6,49.7,30.02,SSE,157,3.2,-999.0,43,-99.99,,,0.00,Acu-Link.com,2013-03-30 19:02:00,
2013-03-30 15:17:00,75.0,49.0,30.02,SE,135,2.2,-999.0,40,-99.99,,,0.00,Acu-Link.com,2013-03-30 19:17:00,
2013-03-30 15:32:00,74.7,49.4,30.02,SSE,157,2.7,-999.0,41,-99.99,,,0.00,Acu-Link.com,2013-03-30 19:32:00,
2013-03-30 15:47:00,72.7,48.3,30.02,SSE,157,3.2,-999.0,42,-99.99,,,0.00,Acu-Link.com,2013-03-30 19:47:00,
2013-03-30 16:02:00,72.9,48.4,30.02,SSE,157,5.3,-999.0,42,-99.99,,,0.00,Acu-Link.com,2013-03-30 20:02:00,
2013-03-30 16:18:00,73.0,47.9,30.01,East,90,2.7,-999.0,41,-99.99,,,0.00,Acu-Link.com,2013-03-30 20:18:00,
2013-03-30 16:33:00,72.5,46.8,30.02,SSE,157,3.7,-999.0,40,-99.99,,,0.00,Acu-Link.com,2013-03-30 20:33:00,
2013-03-30 16:48:00,72.7,45.6,30.02,SSE,157,5.8,-999.0,38,-99.99,,,0.00,Acu-Link.com,2013-03-30 20:48:00,
2013-03-30 17:03:00,72.9,44.4,30.02,ESE,112,4.2,-999.0,36,-99.99,,,0.00,Acu-Link.com,2013-03-30 21:03:00,
2013-03-30 17:18:00,72.5,46.8,30.02,NNE,22,3.2,-999.0,40,-99.99,,,0.00,Acu-Link.com,2013-03-30 21:18:00,
2013-03-30 17:48:00,71.6,47.9,30.03,SSE,157,2.7,-999.0,43,-99.99,,,0.00,Acu-Link.com,2013-03-30 21:48:00,
2013-03-30 18:03:00,71.8,48.7,30.02,SSE,157,2.2,-999.0,44,-99.99,,,0.00,Acu-Link.com,2013-03-30 22:03:00,
2013-03-30 18:18:00,72.5,49.9,30.03,SSE,157,1.7,-999.0,45,-99.99,,,0.00,Acu-Link.com,2013-03-30 22:18:00,
2013-03-30 18:34:00,72.7,50.1,30.03,SE,135,2.7,-999.0,45,-99.99,,,0.00,Acu-Link.com,2013-03-30 22:34:00,
2013-03-30 18:49:00,71.1,49.3,30.03,ESE,112,4.7,-999.0,46,-99.99,,,0.00,Acu-Link.com,2013-03-30 22:49:00,
2013-03-30 19:04:00,70.3,49.7,30.02,South,180,2.7,-999.0,48,-99.99,,,0.00,Acu-Link.com,2013-03-30 23:04:00,
2013-03-30 19:19:00,69.6,50.1,30.04,East,90,3.7,-999.0,50,-99.99,,,0.00,Acu-Link.com,2013-03-30 23:19:00,
2013-03-30 19:34:00,68.9,50.5,30.04,ESE,112,2.7,-999.0,52,-99.99,,,0.00,Acu-Link.com,2013-03-30 23:34:00,
2013-03-30 19:49:00,68.4,50.1,30.04,ESE,112,2.2,-999.0,52,-99.99,,,0.00,Acu-Link.com,2013-03-30 23:49:00,
2013-03-30 20:04:00,68.0,50.7,30.05,SSE,157,1.7,-999.0,54,-99.99,,,0.00,Acu-Link.com,2013-03-31 00:04:00,
2013-03-30 20:19:00,67.6,50.4,30.04,SSE,157,2.2,-999.0,54,-99.99,,,0.00,Acu-Link.com,2013-03-31 00:19:00,
2013-03-30 20:34:00,67.3,51.1,30.04,SE,135,1.1,-999.0,56,-99.99,,,0.00,Acu-Link.com,2013-03-31 00:34:00,
2013-03-30 20:50:00,67.1,50.9,30.05,SSE,157,1.1,-999.0,56,-99.99,,,0.00,Acu-Link.com,2013-03-31 00:50:00,
2013-03-30 21:05:00,66.6,50.9,30.05,SSE,157,0.0,-999.0,57,-99.99,,,0.00,Acu-Link.com,2013-03-31 01:05:00,
2013-03-30 21:20:00,66.4,50.7,30.05,SSE,157,0.0,-999.0,57,-99.99,,,0.00,Acu-Link.com,2013-03-31 01:20:00,
2013-03-30 21:35:00,66.4,50.7,30.06,SE,135,1.7,-999.0,57,-99.99,,,0.00,Acu-Link.com,2013-03-31 01:35:00,
2013-03-30 21:50:00,65.7,50.5,30.06,SE,135,0.0,-999.0,58,-99.99,,,0.00,Acu-Link.com,2013-03-31 01:50:00,
2013-03-30 22:05:00,65.8,50.6,30.06,SE,135,2.7,-999.0,58,-99.99,,,0.00,Acu-Link.com,2013-03-31 02:05:00,
2013-03-30 22:20:00,65.7,51.0,30.07,SSE,157,0.0,-999.0,59,-99.99,,,0.00,Acu-Link.com,2013-03-31 02:20:00,
2013-03-30 22:35:00,65.7,51.4,30.07,SSE,157,2.2,-999.0,60,-99.99,,,0.00,Acu-Link.com,2013-03-31 02:35:00,
2013-03-30 22:50:00,66.0,50.8,30.08,South,180,1.7,-999.0,58,-99.99,,,0.00,Acu-Link.com,2013-03-31 02:50:00,
2013-03-30 23:06:00,65.7,51.0,30.07,SE,135,0.0,-999.0,59,-99.99,,,0.00,Acu-Link.com,2013-03-31 03:06:00,